Time;durP1;ratioP1;P1;durP2;ratioP2;P2;SDS_P1;SDS_P2;PMS_P1;PMS_P2;Temp;Humidity;BMP_temperature;BMP_pressure;BME280_temperature;BME280_humidity;BME280_pressure;Samples;Min_cycle;Max_cycle;Signal;HPM_P1;HPM_P2
2022/11/03 00:01:34;;;;;;;11.98;7.57;;;18.00;96.70;;;;;;4951924;28;20043;-71
2022/11/03 00:04:03;;;;;;;12.57;7.55;;;18.00;96.70;;;;;;4929646;28;20536;-71
2022/11/03 00:06:33;;;;;;;13.85;7.72;;;18.00;96.70;;;;;;4952492;28;20059;-72
2022/11/03 00:09:03;;;;;;;9.30;7.20;;;18.00;96.70;;;;;;4954767;28;20045;-71
2022/11/03 00:11:33;;;;;;;14.95;7.43;;;18.00;96.70;;;;;;4928657;28;20055;-71
2022/11/03 00:14:01;;;;;;;13.65;8.18;;;17.90;96.70;;;;;;4946897;28;20050;-71
2022/11/03 00:16:30;;;;;;;12.98;7.57;;;17.90;96.70;;;;;;4957320;28;20053;-71
2022/11/03 00:18:58;;;;;;;10.98;7.28;;;17.90;96.70;;;;;;4955598;28;20078;-71
2022/11/03 00:21:26;;;;;;;9.77;6.90;;;17.90;96.70;;;;;;4964262;28;20429;-71
2022/11/03 00:23:56;;;;;;;9.05;6.88;;;17.80;96.70;;;;;;4953949;28;20042;-71
2022/11/03 00:26:26;;;;;;;11.93;7.30;;;17.80;96.70;;;;;;4929640;28;20063;-71
2022/11/03 00:28:56;;;;;;;10.82;8.00;;;17.80;96.70;;;;;;4949460;28;20121;-70
2022/11/03 00:31:26;;;;;;;12.55;7.20;;;17.80;96.70;;;;;;4947769;28;20671;-71
2022/11/03 00:33:55;;;;;;;10.68;7.60;;;17.80;96.70;;;;;;4930503;28;20075;-71
2022/11/03 00:36:24;;;;;;;10.52;7.43;;;17.80;96.70;;;;;;4962527;28;20053;-71
2022/11/03 00:38:53;;;;;;;11.38;7.25;;;17.80;96.70;;;;;;4935791;28;20047;-71
2022/11/03 00:41:23;;;;;;;11.55;7.05;;;17.80;96.70;;;;;;4945793;28;20051;-71
2022/11/03 00:43:52;;;;;;;11.27;7.00;;;17.80;96.70;;;;;;4947025;28;20043;-71
2022/11/03 00:46:21;;;;;;;9.75;7.10;;;17.80;96.70;;;;;;4936199;28;20134;-71
2022/11/03 00:48:50;;;;;;;10.57;7.60;;;17.90;96.70;;;;;;4920333;28;20047;-71
2022/11/03 00:51:19;;;;;;;12.82;7.68;;;17.90;96.70;;;;;;4960137;28;20576;-71
2022/11/03 00:53:49;;;;;;;8.60;6.88;;;17.90;96.70;;;;;;4938512;28;20145;-71
2022/11/03 00:56:19;;;;;;;10.25;7.82;;;17.90;96.70;;;;;;4962539;28;20524;-71
2022/11/03 00:58:50;;;;;;;11.60;7.10;;;17.90;96.70;;;;;;4929733;28;20051;-71
2022/11/03 01:01:20;;;;;;;13.07;7.78;;;17.90;96.70;;;;;;4928672;28;20486;-71
2022/11/03 01:06:49;;;;;;;9.38;7.45;;;17.90;96.70;;;;;;4928555;28;20047;-71
2022/11/03 01:09:18;;;;;;;13.15;8.05;;;17.90;96.70;;;;;;4948734;28;20122;-71
2022/11/03 01:11:53;;;;;;;13.85;8.55;;;17.90;96.70;;;;;;4960392;28;20035;-71
2022/11/03 01:14:24;;;;;;;14.18;7.60;;;17.90;96.70;;;;;;4935621;28;20042;-71
2022/11/03 01:16:52;;;;;;;11.63;7.80;;;17.90;96.70;;;;;;4954890;28;20458;-71
2022/11/03 01:19:20;;;;;;;11.50;6.88;;;17.90;96.70;;;;;;4962626;28;20070;-72
2022/11/03 01:21:48;;;;;;;9.38;6.25;;;17.80;96.70;;;;;;4938826;28;20043;-71
2022/11/03 01:24:17;;;;;;;8.75;5.70;;;17.80;96.70;;;;;;4928471;29;20058;-71
2022/11/03 01:26:45;;;;;;;9.52;5.80;;;17.70;96.70;;;;;;4945016;28;20054;-71
2022/11/03 01:29:13;;;;;;;10.70;5.68;;;17.50;96.70;;;;;;4945866;28;20055;-71
2022/11/03 01:31:42;;;;;;;8.15;5.78;;;17.40;96.70;;;;;;4945104;28;20185;-71
2022/11/03 01:34:14;;;;;;;9.43;5.50;;;17.40;96.70;;;;;;4920369;28;20055;-71
2022/11/03 01:36:43;;;;;;;8.38;5.18;;;17.40;96.70;;;;;;4946761;28;20402;-71
2022/11/03 01:39:12;;;;;;;12.77;5.30;;;17.50;96.70;;;;;;4931856;29;20047;-71
2022/11/03 01:41:41;;;;;;;8.23;5.22;;;17.50;96.70;;;;;;4917122;29;20395;-71
2022/11/03 01:44:31;;;;;;;8.13;4.80;;;17.50;96.70;;;;;;4907083;29;20193;-71
2022/11/03 01:47:18;;;;;;;7.55;5.45;;;17.50;96.70;;;;;;4891902;29;20076;-71
2022/11/03 01:49:51;;;;;;;8.20;5.47;;;17.60;96.70;;;;;;4921753;29;20135;-71
2022/11/03 01:52:24;;;;;;;12.10;5.65;;;17.60;96.70;;;;;;4922309;29;20047;-71
2022/11/03 01:54:58;;;;;;;9.45;5.35;;;17.60;96.70;;;;;;4920594;29;20443;-71
2022/11/03 01:57:33;;;;;;;10.32;5.05;;;17.50;96.70;;;;;;4908625;29;20040;-71
2022/11/03 02:00:02;;;;;;;8.20;4.88;;;17.60;96.70;;;;;;4918052;29;20095;-71
2022/11/03 02:02:42;;;;;;;7.15;4.88;;;17.60;96.70;;;;;;4903882;29;20703;-71
2022/11/03 02:05:11;;;;;;;8.05;5.00;;;17.60;96.70;;;;;;4916084;29;20107;-71
2022/11/03 02:07:45;;;;;;;8.70;4.55;;;17.60;96.70;;;;;;4924497;29;20082;-71
2022/11/03 02:10:14;;;;;;;5.93;4.15;;;17.60;96.70;;;;;;4911844;29;20052;-71
2022/11/03 02:12:43;;;;;;;7.70;4.80;;;17.60;96.70;;;;;;4905674;29;20048;-71
2022/11/03 02:15:13;;;;;;;7.57;4.32;;;17.50;96.70;;;;;;4913348;29;20065;-71
2022/11/03 02:17:45;;;;;;;7.32;4.28;;;17.50;96.70;;;;;;4909162;29;20514;-71
2022/11/03 02:20:16;;;;;;;8.27;4.72;;;17.60;96.70;;;;;;4923379;29;20379;-71
2022/11/03 02:23:12;;;;;;;9.45;4.95;;;17.60;96.70;;;;;;4928838;29;20081;-71
2022/11/03 02:25:44;;;;;;;7.50;4.90;;;17.60;96.70;;;;;;4908006;29;20075;-71
2022/11/03 02:28:15;;;;;;;8.73;5.03;;;17.50;96.70;;;;;;4907627;29;20575;-71
2022/11/03 02:30:48;;;;;;;9.13;5.15;;;17.50;96.70;;;;;;4909419;29;20078;-71
2022/11/03 02:33:36;;;;;;;8.43;4.95;;;17.50;96.70;;;;;;4888009;29;20174;-70
2022/11/03 02:36:11;;;;;;;8.57;4.63;;;17.40;96.70;;;;;;4918829;29;20114;-71
2022/11/03 02:38:45;;;;;;;9.23;5.18;;;17.40;96.70;;;;;;4904539;29;20051;-71
2022/11/03 02:41:16;;;;;;;8.55;5.30;;;17.40;96.70;;;;;;4913055;28;20087;-71
2022/11/03 02:43:45;;;;;;;8.75;4.75;;;17.40;96.70;;;;;;4930849;29;20058;-71
2022/11/03 02:46:15;;;;;;;9.77;5.57;;;17.50;96.70;;;;;;4947908;28;20582;-71
2022/11/03 02:48:44;;;;;;;8.93;4.70;;;17.50;96.70;;;;;;4947241;28;20043;-71
2022/11/03 02:51:11;;;;;;;12.95;5.68;;;17.50;96.70;;;;;;4950126;28;20042;-71
2022/11/03 02:53:45;;;;;;;7.65;5.03;;;17.60;96.70;;;;;;4932824;28;20134;-71
2022/11/03 02:56:18;;;;;;;8.75;5.03;;;17.60;96.70;;;;;;4961820;28;20606;-71
2022/11/03 02:58:53;;;;;;;8.35;5.30;;;17.50;96.70;;;;;;4957832;28;20050;-70
2022/11/03 03:01:27;;;;;;;7.22;5.00;;;17.40;96.70;;;;;;4965952;28;20509;-71
2022/11/03 03:03:58;;;;;;;7.53;5.10;;;17.40;96.70;;;;;;4947421;28;20062;-71
2022/11/03 03:06:31;;;;;;;9.18;5.50;;;17.40;96.70;;;;;;4952545;28;20047;-71
2022/11/03 03:09:03;;;;;;;8.57;5.22;;;17.30;96.70;;;;;;4949183;28;20051;-71
2022/11/03 03:11:37;;;;;;;8.10;5.45;;;17.30;96.70;;;;;;4963197;28;20509;-71
2022/11/03 03:14:12;;;;;;;8.23;5.82;;;17.40;96.70;;;;;;4945814;28;20125;-71
2022/11/03 03:16:51;;;;;;;9.25;6.30;;;17.40;96.70;;;;;;4951764;28;20427;-71
2022/11/03 03:19:29;;;;;;;7.15;5.57;;;17.40;96.70;;;;;;4946384;28;20421;-71
2022/11/03 03:22:02;;;;;;;10.65;6.07;;;17.30;96.70;;;;;;4925445;28;20039;-70
2022/11/03 03:24:39;;;;;;;8.57;6.00;;;17.30;96.70;;;;;;4952939;28;20051;-71
2022/11/03 03:27:11;;;;;;;9.70;5.53;;;17.30;96.70;;;;;;4958150;28;20047;-71
2022/11/03 03:29:45;;;;;;;9.05;6.20;;;17.20;96.70;;;;;;4933529;28;20062;-71
2022/11/03 03:32:17;;;;;;;10.38;6.13;;;17.20;96.70;;;;;;4953030;28;20047;-71
2022/11/03 03:34:47;;;;;;;9.73;6.13;;;17.20;96.70;;;;;;4930364;29;20050;-70
2022/11/03 03:37:16;;;;;;;8.63;5.68;;;17.30;96.70;;;;;;4946457;28;20110;-71
2022/11/03 03:39:51;;;;;;;9.05;6.00;;;17.30;96.70;;;;;;4947361;28;20739;-70
2022/11/03 03:42:22;;;;;;;10.38;5.95;;;17.30;96.70;;;;;;4962136;28;20532;-71
2022/11/03 03:44:51;;;;;;;8.00;6.15;;;17.30;96.70;;;;;;4959277;28;20050;-71
2022/11/03 03:47:24;;;;;;;7.90;5.68;;;17.30;96.70;;;;;;4958518;28;20541;-71
2022/11/03 03:49:54;;;;;;;8.88;5.72;;;17.30;96.70;;;;;;4937867;29;20058;-71
2022/11/03 03:52:24;;;;;;;10.05;5.50;;;17.30;96.70;;;;;;4914220;28;20375;-71
2022/11/03 03:54:52;;;;;;;9.45;5.78;;;17.30;96.70;;;;;;4955975;28;20466;-71
2022/11/03 03:57:23;;;;;;;7.45;5.43;;;17.20;96.70;;;;;;4941219;28;20066;-71
2022/11/03 03:59:51;;;;;;;9.73;6.15;;;17.20;96.70;;;;;;4940350;29;20047;-71
2022/11/03 04:02:19;;;;;;;8.48;5.60;;;17.20;96.70;;;;;;4950129;28;20047;-71
2022/11/03 04:04:47;;;;;;;8.88;5.90;;;17.20;96.70;;;;;;4961316;28;20048;-71
2022/11/03 04:10:10;;;;;;;8.07;5.30;;;17.10;96.70;;;;;;4949366;28;20050;-71
2022/11/03 04:24:01;;;;;;;6.45;4.93;;;17.10;96.70;;;;;;4967556;28;20614;-71
2022/11/03 04:26:30;;;;;;;7.93;4.90;;;17.10;96.70;;;;;;4948633;28;20657;-72
2022/11/03 04:29:00;;;;;;;7.68;4.80;;;17.10;96.70;;;;;;4931543;28;20039;-72
2022/11/03 04:31:33;;;;;;;7.70;4.93;;;17.10;96.70;;;;;;4939381;28;20050;-72
2022/11/03 04:34:08;;;;;;;9.18;5.03;;;17.10;96.70;;;;;;4949184;28;20064;-72
2022/11/03 04:36:36;;;;;;;5.95;4.85;;;17.00;96.70;;;;;;4928397;28;20405;-72
2022/11/03 04:39:14;;;;;;;8.88;5.25;;;17.10;96.70;;;;;;4945601;28;20035;-71
2022/11/03 04:41:42;;;;;;;5.45;4.40;;;17.10;96.70;;;;;;4942236;28;20047;-72
2022/11/03 04:44:15;;;;;;;6.35;4.80;;;17.00;96.70;;;;;;4928723;29;20043;-72
2022/11/03 04:46:45;;;;;;;6.18;4.88;;;17.10;96.70;;;;;;4928744;29;20047;-71
2022/11/03 04:49:20;;;;;;;6.45;4.65;;;17.10;96.70;;;;;;4931080;28;20051;-71
2022/11/03 04:51:49;;;;;;;7.90;4.50;;;17.00;96.70;;;;;;4944740;28;20138;-72
2022/11/03 04:54:20;;;;;;;8.18;4.60;;;17.00;96.70;;;;;;4936915;28;20113;-72
2022/11/03 04:56:48;;;;;;;8.27;5.43;;;17.00;96.70;;;;;;4920494;28;20162;-72
2022/11/03 04:59:18;;;;;;;8.25;4.80;;;17.00;96.70;;;;;;4947425;28;20043;-72
2022/11/03 05:01:46;;;;;;;6.20;4.97;;;17.00;96.70;;;;;;4946172;28;20047;-71
2022/11/03 05:04:16;;;;;;;6.60;4.85;;;17.00;96.70;;;;;;4911932;28;20078;-72
2022/11/03 05:06:49;;;;;;;7.03;5.03;;;17.10;96.70;;;;;;4928226;28;20059;-71
2022/11/03 05:09:21;;;;;;;7.18;5.20;;;17.10;96.70;;;;;;4946165;28;20121;-72
2022/11/03 05:11:49;;;;;;;7.78;5.57;;;17.10;96.70;;;;;;4959551;28;20094;-72
2022/11/03 05:14:20;;;;;;;7.03;4.82;;;17.10;96.70;;;;;;4951078;28;20051;-72
2022/11/03 05:16:52;;;;;;;9.40;5.60;;;17.10;96.70;;;;;;4938322;28;20054;-72
2022/11/03 05:19:24;;;;;;;7.75;5.45;;;17.20;96.70;;;;;;4930131;29;20098;-72
2022/11/03 05:21:55;;;;;;;7.30;5.50;;;17.20;96.70;;;;;;4945073;28;20504;-72
2022/11/03 05:24:26;;;;;;;7.32;5.25;;;17.20;96.70;;;;;;4928062;28;20055;-72
2022/11/03 05:26:56;;;;;;;6.68;5.30;;;17.20;96.70;;;;;;4952727;28;20051;-72
2022/11/03 05:29:31;;;;;;;7.90;5.53;;;17.20;96.70;;;;;;4931494;28;20067;-72
2022/11/03 05:32:00;;;;;;;8.52;5.82;;;17.20;96.70;;;;;;4951213;28;20490;-72
2022/11/03 05:34:34;;;;;;;7.85;5.57;;;17.20;96.70;;;;;;4940513;28;20047;-72
2022/11/03 05:37:22;;;;;;;6.50;5.72;;;17.10;96.70;;;;;;4929544;28;20075;-72
2022/11/03 05:39:56;;;;;;;8.25;5.35;;;17.10;96.70;;;;;;4961001;28;20054;-72
2022/11/03 05:42:34;;;;;;;6.25;5.00;;;17.10;96.70;;;;;;4954436;28;20089;-72
2022/11/03 05:45:14;;;;;;;10.82;5.40;;;17.10;96.70;;;;;;4935189;28;20070;-71
2022/11/03 05:47:42;;;;;;;10.20;5.47;;;17.10;96.70;;;;;;4943796;28;20055;-71
2022/11/03 05:50:18;;;;;;;8.40;5.72;;;17.10;96.70;;;;;;4930604;29;20051;-71
2022/11/03 05:52:49;;;;;;;7.13;5.55;;;17.10;96.70;;;;;;4932500;28;20050;-71
2022/11/03 05:55:26;;;;;;;8.20;5.18;;;17.10;96.70;;;;;;4930442;28;20112;-71
2022/11/03 05:57:56;;;;;;;12.82;6.13;;;17.20;96.70;;;;;;4917109;29;20065;-71
2022/11/03 06:00:29;;;;;;;9.68;5.60;;;17.10;96.70;;;;;;4939865;29;20058;-71
2022/11/03 06:02:58;;;;;;;8.55;4.93;;;17.10;96.70;;;;;;4938353;28;20461;-71
2022/11/03 06:05:27;;;;;;;8.57;5.15;;;17.20;96.70;;;;;;4942544;28;20502;-71
2022/11/03 06:07:58;;;;;;;8.13;5.47;;;17.20;96.70;;;;;;4961180;28;20497;-71
2022/11/03 06:10:30;;;;;;;10.55;5.80;;;17.30;96.70;;;;;;4942128;28;20050;-71
2022/11/03 06:13:03;;;;;;;8.25;5.35;;;17.30;96.70;;;;;;4958626;28;20043;-71
2022/11/03 06:15:34;;;;;;;7.45;5.43;;;17.30;96.70;;;;;;4953386;28;20051;-71
2022/11/03 06:18:13;;;;;;;7.93;5.65;;;17.30;96.70;;;;;;4936051;28;20448;-71
2022/11/03 06:20:44;;;;;;;10.63;5.78;;;17.30;96.70;;;;;;4969610;28;20046;-71
2022/11/03 06:23:15;;;;;;;8.00;5.35;;;17.30;96.70;;;;;;4965780;28;20050;-71
2022/11/03 06:25:43;;;;;;;8.35;5.65;;;17.30;96.70;;;;;;4947182;28;20046;-71
2022/11/03 06:28:17;;;;;;;8.82;5.25;;;17.40;96.70;;;;;;4934635;28;20306;-71
2022/11/03 06:30:47;;;;;;;8.07;5.75;;;17.30;96.70;;;;;;4920685;28;20071;-71
2022/11/03 06:33:21;;;;;;;8.15;5.57;;;17.30;96.70;;;;;;4961951;28;20043;-71
2022/11/03 06:35:50;;;;;;;8.75;5.53;;;17.20;96.70;;;;;;4954024;28;20597;-71
2022/11/03 06:38:22;;;;;;;7.43;5.30;;;17.20;96.70;;;;;;4937830;28;20592;-71
2022/11/03 06:40:51;;;;;;;8.05;6.00;;;17.20;96.70;;;;;;4931182;29;20449;-71
2022/11/03 06:43:23;;;;;;;7.75;5.90;;;17.20;96.70;;;;;;4947173;28;20628;-71
2022/11/03 06:45:56;;;;;;;8.38;6.13;;;17.20;96.70;;;;;;4947627;28;20047;-71
2022/11/03 06:48:27;;;;;;;9.65;5.72;;;17.20;96.70;;;;;;4947627;28;20053;-71
2022/11/03 06:51:00;;;;;;;6.97;5.30;;;17.30;96.70;;;;;;4953402;28;20097;-71
2022/11/03 06:53:31;;;;;;;11.43;6.07;;;17.30;96.70;;;;;;4944659;28;20054;-72
2022/11/03 06:56:11;;;;;;;8.15;5.60;;;17.30;96.70;;;;;;4943679;28;20046;-71
2022/11/03 06:58:40;;;;;;;6.50;5.10;;;17.20;96.70;;;;;;4936600;28;20055;-71
2022/11/03 07:01:18;;;;;;;8.57;5.40;;;17.30;96.70;;;;;;4947446;28;20155;-71
2022/11/03 07:03:49;;;;;;;6.53;4.85;;;17.30;96.70;;;;;;4939983;28;20073;-71
2022/11/03 07:06:23;;;;;;;9.55;5.15;;;17.30;96.70;;;;;;4948631;28;20055;-71
2022/11/03 07:08:54;;;;;;;6.53;4.70;;;17.30;96.70;;;;;;4951083;28;20073;-71
2022/11/03 07:11:24;;;;;;;6.90;5.32;;;17.30;96.70;;;;;;4937353;28;20528;-71
2022/11/03 07:13:57;;;;;;;7.63;4.93;;;17.30;96.70;;;;;;4938613;28;20042;-71
2022/11/03 07:16:30;;;;;;;6.80;4.88;;;17.30;96.70;;;;;;4963876;28;20074;-71
2022/11/03 07:19:00;;;;;;;5.43;4.57;;;17.10;96.70;;;;;;4938493;28;20047;-71
2022/11/03 07:21:33;;;;;;;8.90;5.03;;;17.00;96.70;;;;;;4946168;28;20059;-70
2022/11/03 07:24:12;;;;;;;10.65;5.47;;;17.10;96.70;;;;;;4946921;28;20584;-70
2022/11/03 07:26:40;;;;;;;7.05;5.00;;;17.10;96.70;;;;;;4947021;28;20078;-70
2022/11/03 07:29:14;;;;;;;8.63;5.25;;;17.20;96.70;;;;;;4949235;28;20138;-71
2022/11/03 07:31:44;;;;;;;6.97;4.97;;;17.20;96.70;;;;;;4951434;28;20051;-70
2022/11/03 07:34:18;;;;;;;6.28;4.63;;;17.20;96.70;;;;;;4935358;28;20053;-70
2022/11/03 07:36:47;;;;;;;11.40;5.75;;;17.30;96.70;;;;;;4958602;28;20034;-70
2022/11/03 07:39:22;;;;;;;13.63;5.45;;;17.30;96.70;;;;;;4952603;28;20043;-70
2022/11/03 07:41:51;;;;;;;7.07;4.70;;;17.40;96.70;;;;;;4946772;28;20087;-71
2022/11/03 07:44:20;;;;;;;7.82;5.05;;;17.40;96.70;;;;;;4946733;28;20505;-70
2022/11/03 07:46:50;;;;;;;8.55;4.78;;;17.50;96.70;;;;;;4928866;29;20126;-70
2022/11/03 07:49:26;;;;;;;7.55;4.70;;;17.50;96.70;;;;;;4946876;28;20043;-71
2022/11/03 07:51:56;;;;;;;6.57;4.75;;;17.50;96.70;;;;;;4946289;28;20051;-71
2022/11/03 07:54:29;;;;;;;9.57;5.22;;;17.50;96.70;;;;;;4929618;28;20047;-71
2022/11/03 07:56:59;;;;;;;7.25;4.63;;;17.50;96.70;;;;;;4929575;29;20071;-71
2022/11/03 07:59:30;;;;;;;9.63;5.10;;;17.60;96.70;;;;;;4930409;29;20118;-71
2022/11/03 08:02:01;;;;;;;11.43;5.40;;;17.60;96.70;;;;;;4946004;28;20479;-71
2022/11/03 08:04:33;;;;;;;9.88;5.60;;;17.60;96.70;;;;;;4939766;28;20707;-71
2022/11/03 08:07:01;;;;;;;8.55;6.13;;;17.70;96.70;;;;;;4915844;29;20663;-71
2022/11/03 08:09:29;;;;;;;11.27;6.18;;;17.70;96.70;;;;;;4941390;28;20512;-71
2022/11/03 08:11:57;;;;;;;6.53;5.28;;;17.80;96.70;;;;;;4934036;29;20058;-71
2022/11/03 08:14:26;;;;;;;7.72;4.90;;;17.80;96.70;;;;;;4960807;28;20407;-71
2022/11/03 08:16:54;;;;;;;8.52;4.90;;;17.90;96.70;;;;;;4953277;28;20047;-71
2022/11/03 08:19:24;;;;;;;5.53;4.45;;;17.90;96.70;;;;;;4952083;28;20066;-71
2022/11/03 08:21:52;;;;;;;6.43;4.40;;;18.00;96.70;;;;;;4942769;28;20105;-71
2022/11/03 08:24:20;;;;;;;7.60;4.32;;;18.10;96.70;;;;;;4945765;28;20047;-71
2022/11/03 08:26:48;;;;;;;6.28;3.88;;;18.10;96.70;;;;;;4929276;29;20071;-71
2022/11/03 08:29:17;;;;;;;5.82;4.25;;;18.10;96.70;;;;;;4928371;28;20046;-71
2022/11/03 08:31:45;;;;;;;4.95;3.80;;;18.20;96.70;;;;;;4923499;28;20078;-72
2022/11/03 08:34:13;;;;;;;6.55;3.97;;;18.20;96.70;;;;;;4914305;29;20577;-71
2022/11/03 08:36:43;;;;;;;6.55;4.75;;;18.20;96.70;;;;;;4957307;28;21009;-72
2022/11/03 08:39:11;;;;;;;5.80;4.07;;;18.20;96.70;;;;;;4955771;28;20055;-71
2022/11/03 08:41:40;;;;;;;5.15;3.88;;;18.30;96.70;;;;;;4958672;28;20059;-71
2022/11/03 08:44:08;;;;;;;9.68;4.72;;;18.20;96.70;;;;;;4919106;28;20102;-71
2022/11/03 08:46:36;;;;;;;6.95;4.47;;;18.20;96.70;;;;;;4913239;28;20059;-71
2022/11/03 08:49:04;;;;;;;8.30;4.50;;;18.10;96.70;;;;;;4945602;28;20070;-72
2022/11/03 08:51:33;;;;;;;5.90;4.05;;;18.10;96.70;;;;;;4928877;29;20047;-71
2022/11/03 08:54:02;;;;;;;6.93;4.80;;;18.10;96.70;;;;;;4946745;28;20051;-71
2022/11/03 08:56:31;;;;;;;7.05;4.50;;;18.10;96.70;;;;;;4960824;28;20049;-71
2022/11/03 08:58:59;;;;;;;7.43;5.07;;;18.10;96.70;;;;;;4934516;28;20053;-72
2022/11/03 09:01:27;;;;;;;7.03;4.60;;;18.20;96.70;;;;;;4946112;28;20051;-71
2022/11/03 09:03:56;;;;;;;6.90;3.97;;;18.30;96.70;;;;;;4936772;28;20045;-71
2022/11/03 09:06:24;;;;;;;8.57;4.68;;;18.40;96.70;;;;;;4945480;28;20059;-71
2022/11/03 09:08:52;;;;;;;6.28;4.00;;;18.50;96.70;;;;;;4951787;28;20142;-71
2022/11/03 09:11:42;;;;;;;7.03;4.60;;;18.50;96.70;;;;;;4942254;28;20039;-71
2022/11/03 09:14:10;;;;;;;6.72;4.80;;;18.40;96.70;;;;;;4954700;28;20505;-71
2022/11/03 09:16:38;;;;;;;7.15;4.13;;;18.40;96.70;;;;;;4944106;28;20101;-71
2022/11/03 09:19:06;;;;;;;8.90;4.22;;;18.50;96.70;;;;;;4950765;28;20139;-72
2022/11/03 09:21:34;;;;;;;5.95;4.07;;;18.70;96.70;;;;;;4928067;28;20121;-72
2022/11/03 09:24:03;;;;;;;7.13;4.15;;;18.80;96.70;;;;;;4930453;29;20614;-72
2022/11/03 09:26:31;;;;;;;5.43;4.10;;;18.90;96.70;;;;;;4932378;28;20039;-72
2022/11/03 09:29:01;;;;;;;5.10;3.92;;;19.10;96.70;;;;;;4951020;28;20127;-73
2022/11/03 09:31:29;;;;;;;6.10;4.20;;;19.10;96.70;;;;;;4931302;28;20470;-71
2022/11/03 09:33:57;;;;;;;4.55;3.65;;;19.20;96.70;;;;;;4954894;28;20126;-72
2022/11/03 09:36:25;;;;;;;6.35;4.38;;;19.20;96.70;;;;;;4947058;28;20049;-71
2022/11/03 09:38:58;;;;;;;9.68;4.97;;;19.40;96.70;;;;;;4957504;28;20039;-72
2022/11/03 09:41:26;;;;;;;8.68;4.85;;;19.50;96.70;;;;;;4948804;28;20134;-71
2022/11/03 09:44:16;;;;;;;7.93;5.07;;;19.60;96.70;;;;;;4931287;28;20596;-72
2022/11/03 09:46:45;;;;;;;7.43;4.63;;;19.70;96.70;;;;;;4950415;28;20046;-71
2022/11/03 09:49:14;;;;;;;10.38;4.68;;;19.90;96.70;;;;;;4931882;29;20049;-71
2022/11/03 09:51:43;;;;;;;6.90;4.60;;;19.80;96.70;;;;;;4952062;28;20129;-71
2022/11/03 09:54:14;;;;;;;8.15;5.07;;;19.80;96.70;;;;;;4948650;28;20079;-71
2022/11/03 09:56:43;;;;;;;7.50;4.88;;;19.70;96.70;;;;;;4946004;28;20067;-71
2022/11/03 09:59:16;;;;;;;9.05;4.72;;;19.80;96.70;;;;;;4961936;28;20042;-71
2022/11/03 10:01:47;;;;;;;8.43;4.90;;;19.90;96.70;;;;;;4959747;28;20046;-71
2022/11/03 10:04:19;;;;;;;8.35;4.93;;;19.90;96.70;;;;;;4941085;29;20121;-71
2022/11/03 10:06:47;;;;;;;7.40;5.10;;;19.80;96.70;;;;;;4951022;28;20098;-71
2022/11/03 10:09:17;;;;;;;7.55;4.40;;;19.90;96.70;;;;;;4943636;28;20117;-71
2022/11/03 10:11:46;;;;;;;6.50;4.53;;;19.90;96.70;;;;;;4953907;28;20047;-72
2022/11/03 10:14:17;;;;;;;7.30;4.63;;;19.90;96.70;;;;;;4963643;28;20477;-71
2022/11/03 10:16:51;;;;;;;6.15;3.92;;;19.90;96.70;;;;;;4937351;29;20058;-71
2022/11/03 10:19:20;;;;;;;7.32;4.03;;;19.90;96.70;;;;;;4939507;28;20407;-71
2022/11/03 10:21:50;;;;;;;6.35;4.22;;;20.00;96.70;;;;;;4948886;28;20067;-70
2022/11/03 10:24:18;;;;;;;6.82;3.80;;;20.00;96.70;;;;;;4931615;29;20114;-70
2022/11/03 10:26:47;;;;;;;7.15;4.20;;;20.10;96.70;;;;;;4945566;28;20126;-71
2022/11/03 10:29:21;;;;;;;9.65;4.30;;;20.10;96.70;;;;;;4948102;28;20051;-70
2022/11/03 10:31:51;;;;;;;7.90;3.88;;;20.20;96.70;;;;;;4947882;28;20158;-70
2022/11/03 10:34:30;;;;;;;6.00;4.00;;;20.20;96.70;;;;;;4952615;28;20047;-70
2022/11/03 10:37:16;;;;;;;7.03;4.38;;;20.20;96.70;;;;;;4939595;28;20051;-70
2022/11/03 10:39:44;;;;;;;5.13;3.83;;;20.20;96.70;;;;;;4958010;28;20153;-71
2022/11/03 10:42:19;;;;;;;7.35;3.88;;;20.20;96.70;;;;;;4929131;29;20100;-70
2022/11/03 10:44:51;;;;;;;6.05;3.75;;;20.10;96.70;;;;;;4931063;29;20099;-71
2022/11/03 10:47:25;;;;;;;5.88;3.60;;;20.20;96.70;;;;;;4933423;29;20043;-71
2022/11/03 10:49:53;;;;;;;4.57;3.63;;;20.20;96.70;;;;;;4927791;29;20054;-71
2022/11/03 10:52:23;;;;;;;4.65;3.35;;;20.30;96.70;;;;;;4927649;29;20047;-71
2022/11/03 10:54:52;;;;;;;6.72;3.58;;;20.30;96.70;;;;;;4927037;29;20047;-71
2022/11/03 10:57:21;;;;;;;6.75;3.85;;;20.30;96.70;;;;;;4928282;29;20074;-71
2022/11/03 10:59:53;;;;;;;5.30;3.17;;;20.30;96.70;;;;;;4927322;29;20231;-71
2022/11/03 11:02:25;;;;;;;4.18;3.03;;;20.40;96.70;;;;;;4928329;29;20051;-71
2022/11/03 11:04:58;;;;;;;9.25;4.43;;;20.40;96.70;;;;;;4928337;29;20607;-71
2022/11/03 11:07:31;;;;;;;5.40;3.80;;;20.40;96.70;;;;;;4911615;29;20057;-72
2022/11/03 11:10:06;;;;;;;5.28;3.38;;;20.40;96.70;;;;;;4933369;29;20065;-71
2022/11/03 11:12:34;;;;;;;5.90;3.63;;;20.50;96.70;;;;;;4943368;29;20050;-71
2022/11/03 11:15:44;;;;;;;5.22;3.55;;;20.40;96.70;;;;;;4930061;29;20482;-71
2022/11/03 11:18:59;;;;;;;5.85;3.80;;;20.50;96.70;;;;;;4922988;29;20056;-72
2022/11/03 11:22:03;;;;;;;6.53;3.42;;;20.60;96.70;;;;;;4927279;29;20455;-71
2022/11/03 11:25:00;;;;;;;6.75;3.38;;;20.50;96.70;;;;;;4925325;29;20139;-71
2022/11/03 11:27:54;;;;;;;6.75;3.50;;;20.50;96.70;;;;;;4920911;29;20558;-72
2022/11/03 11:30:58;;;;;;;4.60;3.35;;;20.40;96.70;;;;;;4919766;29;20537;-71
2022/11/03 11:33:33;;;;;;;5.28;3.47;;;20.30;96.70;;;;;;4927494;29;20130;-72
2022/11/03 11:36:20;;;;;;;4.55;3.30;;;20.20;96.70;;;;;;4926281;29;20052;-71
2022/11/03 11:39:09;;;;;;;5.07;3.30;;;20.20;96.70;;;;;;4944752;28;20055;-71
2022/11/03 11:42:13;;;;;;;4.78;3.53;;;20.10;96.70;;;;;;4949405;28;20074;-71
2022/11/03 11:45:02;;;;;;;6.30;3.55;;;20.00;96.70;;;;;;4943682;28;20050;-71
2022/11/03 11:47:46;;;;;;;4.88;3.67;;;20.00;96.70;;;;;;4948045;28;20051;-71
2022/11/03 11:50:34;;;;;;;4.70;3.63;;;20.00;96.70;;;;;;4940541;28;20069;-71
2022/11/03 11:53:21;;;;;;;4.28;3.42;;;20.10;96.70;;;;;;4952951;28;20557;-71
2022/11/03 11:55:57;;;;;;;5.28;3.30;;;20.40;96.70;;;;;;4949702;28;20042;-71
2022/11/03 11:58:35;;;;;;;5.80;3.80;;;20.70;96.70;;;;;;4959726;28;20517;-71
2022/11/03 12:01:18;;;;;;;6.07;3.50;;;20.80;96.70;;;;;;4960278;28;20038;-72
2022/11/03 12:03:47;;;;;;;4.35;2.97;;;20.90;96.70;;;;;;4929090;28;20046;-72
2022/11/03 12:06:30;;;;;;;6.50;3.40;;;21.20;96.70;;;;;;4956413;28;20043;-73
2022/11/03 12:09:04;;;;;;;4.18;3.13;;;21.20;96.70;;;;;;4954476;28;20690;-71
2022/11/03 12:11:43;;;;;;;3.60;3.13;;;21.70;96.70;;;;;;4955061;28;20050;-72
2022/11/03 12:14:24;;;;;;;6.35;3.50;;;21.80;96.70;;;;;;4936667;29;20502;-72
2022/11/03 12:16:52;;;;;;;4.03;3.10;;;21.70;96.70;;;;;;4933317;28;20042;-71
2022/11/03 12:19:34;;;;;;;4.70;3.00;;;21.60;96.70;;;;;;4949137;28;20110;-72
2022/11/03 12:22:05;;;;;;;5.32;2.92;;;21.30;96.70;;;;;;4971119;28;20122;-72
2022/11/03 12:24:47;;;;;;;3.83;3.13;;;21.30;96.70;;;;;;4943401;28;20066;-72
2022/11/03 12:27:40;;;;;;;9.90;3.00;;;21.30;96.70;;;;;;4937299;28;20101;-72
2022/11/03 12:30:14;;;;;;;5.50;2.85;;;21.40;96.70;;;;;;4942425;28;20401;-73
2022/11/03 12:32:42;;;;;;;6.82;2.78;;;21.40;96.70;;;;;;4959781;28;20046;-72
2022/11/03 12:35:12;;;;;;;4.18;2.65;;;21.40;96.70;;;;;;4932340;28;20409;-72
2022/11/03 12:37:41;;;;;;;5.88;3.03;;;21.70;96.70;;;;;;4934657;28;20705;-72
2022/11/03 12:40:12;;;;;;;5.40;2.90;;;22.00;96.70;;;;;;4951205;28;20054;-72
2022/11/03 12:42:41;;;;;;;3.58;2.90;;;22.20;96.70;;;;;;4956010;28;20085;-73
2022/11/03 12:45:10;;;;;;;4.55;3.20;;;22.30;96.70;;;;;;4956619;28;20513;-73
2022/11/03 12:47:38;;;;;;;3.75;2.80;;;22.50;96.70;;;;;;4943330;28;20101;-72
2022/11/03 12:50:06;;;;;;;4.30;2.78;;;22.50;96.70;;;;;;4927929;28;20106;-72
2022/11/03 12:52:34;;;;;;;6.20;3.25;;;22.60;96.70;;;;;;4928839;28;20058;-72
2022/11/03 12:55:04;;;;;;;5.20;2.60;;;22.60;96.70;;;;;;4937353;28;20051;-72
2022/11/03 12:57:32;;;;;;;6.15;3.40;;;22.50;96.70;;;;;;4943994;28;20042;-73
2022/11/03 13:00:00;;;;;;;5.20;2.88;;;22.30;96.70;;;;;;4952417;28;20066;-73
2022/11/03 13:02:28;;;;;;;7.75;3.10;;;22.30;96.70;;;;;;4957240;28;20044;-73
2022/11/03 13:04:56;;;;;;;6.00;3.08;;;22.20;96.70;;;;;;4945145;28;20052;-72
2022/11/03 13:07:24;;;;;;;4.65;3.28;;;22.20;96.70;;;;;;4949292;28;20039;-72
2022/11/03 13:10:00;;;;;;;5.03;2.63;;;22.30;96.70;;;;;;4944777;28;20043;-73
2022/11/03 13:12:32;;;;;;;3.30;2.45;;;22.30;96.70;;;;;;4932192;28;20043;-72
2022/11/03 13:15:02;;;;;;;3.67;2.70;;;22.40;96.70;;;;;;4952487;28;20047;-72
2022/11/03 13:17:30;;;;;;;5.75;2.85;;;22.40;96.70;;;;;;4944782;28;20125;-72
2022/11/03 13:20:18;;;;;;;3.97;2.20;;;22.60;96.70;;;;;;4955349;28;20497;-71
2022/11/03 13:22:46;;;;;;;5.72;2.75;;;22.60;96.70;;;;;;4956103;28;20173;-72
2022/11/03 13:25:14;;;;;;;4.50;2.65;;;22.60;96.70;;;;;;4945536;28;20051;-72
2022/11/03 13:27:43;;;;;;;4.50;2.50;;;22.70;96.70;;;;;;4944953;28;20130;-72
2022/11/03 13:30:13;;;;;;;5.68;2.63;;;22.70;96.70;;;;;;4929061;29;20054;-72